createdAt,value
2018-07-04T00:00:31.617Z,66.69
2018-07-04T00:01:12.076Z,66.3
2018-07-04T00:01:52.579Z,66.69
2018-07-04T00:02:35.948Z,66.4
2018-07-04T00:03:16.456Z,66.78
2018-07-04T00:03:58.714Z,66.78
2018-07-04T00:04:39.209Z,66.88
2018-07-04T00:05:19.733Z,66.5
2018-07-04T00:06:00.217Z,67.08
2018-07-04T00:06:40.688Z,67.08
2018-07-04T00:07:21.159Z,67.08
2018-07-04T00:08:02.622Z,66.98
2018-07-04T00:08:43.167Z,67.08
2018-07-04T00:09:23.664Z,66.98
2018-07-04T00:10:04.196Z,67.18
2018-07-04T00:10:44.619Z,66.98
2018-07-04T00:11:25.136Z,67.18
2018-07-04T00:12:05.587Z,67.08
2018-07-04T00:12:46.099Z,66.88
2018-07-04T00:13:26.602Z,66.98
2018-07-04T00:14:07.171Z,67.08
2018-07-04T00:14:47.711Z,66.88
2018-07-04T00:15:28.177Z,67.18
2018-07-04T00:16:08.762Z,66.88
2018-07-04T00:16:49.259Z,67.27
2018-07-04T00:17:29.746Z,67.37
2018-07-04T00:18:10.249Z,67.27
2018-07-04T00:18:50.746Z,67.37
2018-07-04T00:19:31.304Z,67.63
2018-07-04T00:20:11.785Z,67.33
2018-07-04T00:20:52.265Z,67.56
2018-07-04T00:21:32.785Z,67.53
2018-07-04T00:22:13.329Z,67.24
2018-07-04T00:22:53.800Z,67.63
2018-07-04T00:23:34.338Z,67.63
2018-07-04T00:24:15.631Z,67.91
2018-07-04T00:24:56.101Z,67.82
2018-07-04T00:25:36.631Z,67.63
2018-07-04T00:26:17.083Z,67.33
2018-07-04T00:26:57.607Z,68.3
2018-07-04T00:27:38.714Z,68.11
2018-07-04T00:28:19.236Z,68.11
2018-07-04T00:28:59.714Z,67.82
2018-07-04T00:29:40.825Z,67.46
2018-07-04T00:30:21.356Z,67.24
2018-07-04T00:31:01.826Z,67.66
2018-07-04T00:31:43.070Z,67.53
2018-07-04T00:32:23.595Z,67.53
2018-07-04T00:33:04.840Z,67.95
2018-07-04T00:33:45.367Z,68.05
2018-07-04T00:34:25.848Z,68.3
2018-07-04T00:35:06.372Z,67.43
2018-07-04T00:35:46.821Z,67.53
2018-07-04T00:36:28.220Z,67.33
2018-07-04T00:37:08.718Z,67.85
2018-07-04T00:37:49.242Z,67.56
2018-07-04T00:38:29.709Z,68.11
2018-07-04T00:39:10.203Z,68.21
2018-07-04T00:39:50.730Z,68.11
2018-07-04T00:40:31.217Z,68.21
2018-07-04T00:41:11.706Z,68.01
2018-07-04T00:41:52.204Z,68.21
2018-07-04T00:42:32.718Z,68.01
2018-07-04T00:43:13.179Z,68.21
2018-07-04T00:43:53.671Z,68.21
2018-07-04T00:44:34.166Z,68.01
2018-07-04T00:45:16.559Z,68.3
2018-07-04T00:45:57.715Z,68.11
2018-07-04T00:46:38.214Z,68.11
2018-07-04T00:47:18.702Z,68.11
2018-07-04T00:47:59.233Z,68.21
2018-07-04T00:48:39.727Z,68.24
2018-07-04T00:49:20.234Z,68.3
2018-07-04T00:50:00.754Z,68.21
2018-07-04T00:50:41.283Z,68.3
2018-07-04T00:51:23.321Z,68.4
2018-07-04T00:52:03.818Z,68.3
2018-07-04T00:52:45.093Z,68.3
2018-07-04T00:53:25.582Z,68.11
2018-07-04T00:54:06.139Z,68.4
2018-07-04T00:54:46.619Z,68.4
2018-07-04T00:55:27.989Z,68.4
2018-07-04T00:56:08.434Z,68.4
2018-07-04T00:56:49.777Z,68.59
2018-07-04T00:57:30.281Z,68.3
2018-07-04T00:58:10.775Z,68.59
2018-07-04T00:58:51.249Z,68.69
2018-07-04T00:59:31.735Z,68.49
2018-07-04T01:00:12.275Z,68.69
2018-07-04T01:00:52.700Z,68.69
2018-07-04T01:01:33.886Z,68.88
2018-07-04T01:02:14.354Z,68.79
2018-07-04T01:02:54.863Z,68.85
2018-07-04T01:03:35.334Z,69.53
2018-07-04T01:04:15.818Z,69.46
2018-07-04T01:04:56.339Z,68.85
2018-07-04T01:05:36.809Z,68.98
2018-07-04T01:06:17.299Z,68.98
2018-07-04T01:06:57.759Z,69.17
2018-07-04T01:07:38.322Z,69.08
2018-07-04T01:08:18.810Z,68.88
2018-07-04T01:08:59.323Z,68.98
2018-07-04T01:09:39.817Z,68.49
2018-07-04T01:10:20.374Z,68.69
2018-07-04T01:11:00.852Z,68.85
2018-07-04T01:11:41.368Z,68.79
2018-07-04T01:12:21.876Z,68.79
2018-07-04T01:13:02.350Z,68.98
2018-07-04T01:13:42.872Z,68.88
2018-07-04T01:14:23.383Z,68.59
2018-07-04T01:15:03.850Z,68.88
2018-07-04T01:15:45.262Z,68.69
2018-07-04T01:16:25.747Z,68.69
2018-07-04T01:17:06.253Z,69.08
2018-07-04T01:17:46.879Z,69.75
2018-07-04T01:18:27.403Z,69.92
2018-07-04T01:19:07.826Z,69.82
2018-07-04T01:19:48.956Z,69.82
2018-07-04T01:20:29.438Z,69.92
2018-07-04T01:21:09.928Z,70.01
2018-07-04T01:21:50.397Z,69.75
2018-07-04T01:22:30.911Z,69.85
2018-07-04T01:23:12.124Z,69.56
2018-07-04T01:23:52.591Z,70.04
2018-07-04T01:24:33.765Z,69.75
2018-07-04T01:25:14.252Z,69.37
2018-07-04T01:25:54.779Z,69.85
2018-07-04T01:26:35.244Z,69.56
2018-07-04T01:27:15.741Z,69.95
2018-07-04T01:27:56.215Z,69.95
2018-07-04T01:28:36.734Z,70.14
2018-07-04T01:29:17.767Z,69.95
2018-07-04T01:29:58.275Z,70.14
2018-07-04T01:30:39.753Z,69.85
2018-07-04T01:31:20.252Z,69.75
2018-07-04T01:32:00.732Z,70.04
2018-07-04T01:32:41.879Z,69.37
2018-07-04T01:33:22.324Z,69.37
2018-07-04T01:34:02.809Z,69.27
2018-07-04T01:34:43.328Z,69.37
2018-07-04T01:35:23.794Z,69.37
2018-07-04T01:36:04.307Z,69.37
2018-07-04T01:36:44.852Z,69.85
2018-07-04T01:37:25.314Z,69.75
2018-07-04T01:38:05.808Z,69.56
2018-07-04T01:38:46.322Z,69.27
2018-07-04T01:39:26.803Z,69.37
2018-07-04T01:40:07.869Z,69.27
2018-07-04T01:40:48.353Z,68.88
2018-07-04T01:41:28.845Z,68.88
2018-07-04T01:42:09.340Z,68.98
2018-07-04T01:42:50.381Z,68.75
2018-07-04T01:43:31.568Z,68.98
2018-07-04T01:44:12.307Z,68.85
2018-07-04T01:44:52.768Z,68.88
2018-07-04T01:45:33.967Z,68.95
2018-07-04T01:46:14.482Z,68.85
2018-07-04T01:46:56.859Z,68.98
2018-07-04T01:47:37.373Z,68.88
2018-07-04T01:48:18.575Z,68.69
2018-07-04T01:48:59.113Z,68.59
2018-07-04T01:49:40.371Z,69.08
2018-07-04T01:50:20.866Z,68.79
2018-07-04T01:51:01.338Z,69.08
2018-07-04T01:51:42.523Z,68.95
2018-07-04T01:52:23.042Z,68.66
2018-07-04T01:53:03.509Z,68.95
2018-07-04T01:53:44.015Z,68.69
2018-07-04T01:54:24.583Z,68.95
2018-07-04T01:55:05.055Z,68.85
2018-07-04T01:55:45.540Z,68.85
2018-07-04T01:56:26.057Z,69.43
2018-07-04T01:57:06.558Z,68.95
2018-07-04T01:57:47.115Z,68.66
2018-07-04T01:58:27.500Z,68.66
2018-07-04T01:59:08.015Z,68.66
2018-07-04T01:59:48.520Z,68.95
2018-07-04T02:00:29.002Z,68.56
2018-07-04T02:01:10.036Z,68.56
2018-07-04T02:01:50.553Z,68.85
2018-07-04T02:02:31.026Z,68.56
2018-07-04T02:03:11.519Z,68.56
2018-07-04T02:03:52.035Z,68.56
2018-07-04T02:04:32.507Z,69.14
2018-07-04T02:05:13.011Z,68.85
2018-07-04T02:05:53.492Z,68.95
2018-07-04T02:06:34.997Z,69.04
2018-07-04T02:07:15.464Z,68.75
2018-07-04T02:07:57.477Z,68.56
2018-07-04T02:08:37.946Z,68.66
2018-07-04T02:09:18.980Z,68.66
2018-07-04T02:10:00.153Z,68.75
2018-07-04T02:10:41.654Z,68.75
2018-07-04T02:11:22.154Z,68.66
2018-07-04T02:12:02.649Z,69.24
2018-07-04T02:12:43.157Z,69.53
2018-07-04T02:13:23.651Z,69.04
2018-07-04T02:14:05.206Z,69.33
2018-07-04T02:14:45.671Z,69.24
2018-07-04T02:15:26.145Z,69.33
2018-07-04T02:16:06.639Z,69.14
2018-07-04T02:16:47.113Z,69.43
2018-07-04T02:17:29.475Z,69.33
2018-07-04T02:18:09.970Z,68.95
2018-07-04T02:18:50.512Z,68.75
2018-07-04T02:19:30.954Z,69.43
2018-07-04T02:20:11.466Z,69.53
2018-07-04T02:20:51.947Z,69.43
2018-07-04T02:21:33.415Z,69.33
2018-07-04T02:22:13.890Z,69.53
2018-07-04T02:22:54.394Z,69.53
2018-07-04T02:23:34.870Z,69.82
2018-07-04T02:24:15.368Z,69.14
2018-07-04T02:24:55.886Z,69.33
2018-07-04T02:25:36.397Z,69.59
2018-07-04T02:26:16.884Z,69.68
2018-07-04T02:26:57.399Z,69.2
2018-07-04T02:27:37.886Z,69.24
2018-07-04T02:28:18.407Z,69.43
2018-07-04T02:28:58.895Z,69.82
2018-07-04T02:29:40.018Z,69.72
2018-07-04T02:30:20.478Z,70.26
2018-07-04T02:31:00.972Z,69.78
2018-07-04T02:31:41.450Z,69.88
2018-07-04T02:32:22.925Z,69.59
2018-07-04T02:33:04.094Z,69.59
2018-07-04T02:33:44.557Z,69.88
2018-07-04T02:34:25.071Z,69.78
2018-07-04T02:35:05.602Z,69.88
2018-07-04T02:35:46.071Z,69.78
2018-07-04T02:36:26.534Z,69.68
2018-07-04T02:37:07.015Z,69.68
2018-07-04T02:37:47.526Z,69.98
2018-07-04T02:38:28.802Z,69.78
2018-07-04T02:39:09.300Z,69.98
2018-07-04T02:39:49.788Z,69.2
2018-07-04T02:40:30.250Z,69.2
2018-07-04T02:41:10.817Z,69.4
2018-07-04T02:41:51.324Z,69.49
2018-07-04T02:42:32.786Z,69.68
2018-07-04T02:43:13.283Z,70.26
2018-07-04T02:43:54.285Z,70.14
2018-07-04T02:44:34.830Z,70.04
2018-07-04T02:45:15.302Z,69.74
2018-07-04T02:45:56.584Z,69.98
2018-07-04T02:46:37.069Z,69.17
2018-07-04T02:47:17.572Z,69.07
2018-07-04T02:47:58.043Z,69.07
2018-07-04T02:48:38.532Z,69.36
2018-07-04T02:49:19.601Z,69.26
2018-07-04T02:50:00.114Z,69.26
2018-07-04T02:50:40.607Z,69.17
2018-07-04T02:51:21.038Z,69.17
2018-07-04T02:52:02.194Z,69.26
2018-07-04T02:52:42.679Z,69.36
2018-07-04T02:53:23.194Z,68.88
2018-07-04T02:54:04.560Z,69.46
2018-07-04T02:54:45.104Z,69.46
2018-07-04T02:55:25.592Z,69.74
2018-07-04T02:56:06.823Z,69.56
2018-07-04T02:56:47.295Z,69.94
2018-07-04T02:57:27.816Z,69.74
2018-07-04T02:58:08.330Z,69.65
2018-07-04T02:58:48.830Z,69.26
2018-07-04T02:59:29.279Z,69.2
2018-07-04T03:00:09.823Z,68.68
2018-07-04T03:00:50.257Z,68.72
2018-07-04T03:01:31.516Z,68.72
2018-07-04T03:02:12.982Z,69.01
2018-07-04T03:02:54.381Z,68.72
2018-07-04T03:03:34.904Z,68.91
2018-07-04T03:04:15.398Z,68.82
2018-07-04T03:04:56.815Z,68.72
2018-07-04T03:05:37.289Z,69.49
2018-07-04T03:06:17.809Z,69.01
2018-07-04T03:06:58.319Z,68.91
2018-07-04T03:07:38.849Z,68.72
2018-07-04T03:08:19.321Z,68.82
2018-07-04T03:08:59.880Z,68.82
2018-07-04T03:09:40.346Z,69.01
2018-07-04T03:10:21.828Z,68.91
2018-07-04T03:11:02.321Z,69.01
2018-07-04T03:11:42.793Z,68.82
2018-07-04T03:12:23.322Z,69.3
2018-07-04T03:13:03.791Z,69.74
2018-07-04T03:13:44.313Z,69.98
2018-07-04T03:14:24.766Z,69.1
2018-07-04T03:15:05.305Z,69.2
2018-07-04T03:15:45.787Z,69.4
2018-07-04T03:16:26.294Z,68.72
2018-07-04T03:17:06.819Z,68.82
2018-07-04T03:17:47.414Z,69.4
2018-07-04T03:18:27.880Z,69.49
2018-07-04T03:19:08.358Z,68.72
2018-07-04T03:19:48.869Z,69.01
2018-07-04T03:20:29.361Z,68.82
2018-07-04T03:21:09.857Z,68.52
2018-07-04T03:21:50.348Z,68.91
2018-07-04T03:22:31.720Z,68.62
2018-07-04T03:23:12.176Z,68.75
2018-07-04T03:23:52.693Z,68.75
2018-07-04T03:24:33.186Z,68.85
2018-07-04T03:25:13.681Z,69.01
2018-07-04T03:25:54.183Z,68.91
2018-07-04T03:26:34.682Z,69.2
2018-07-04T03:27:15.134Z,68.91
2018-07-04T03:27:56.161Z,69.49
2018-07-04T03:28:36.685Z,68.95
2018-07-04T03:29:17.138Z,68.85
2018-07-04T03:29:57.668Z,68.75
2018-07-04T03:30:38.141Z,68.75
2018-07-04T03:31:18.676Z,68.95
2018-07-04T03:31:59.153Z,69.33
2018-07-04T03:32:40.155Z,68.95
2018-07-04T03:33:20.593Z,69.43
2018-07-04T03:34:01.098Z,69.4
2018-07-04T03:34:41.567Z,69.2
2018-07-04T03:35:22.090Z,69.1
2018-07-04T03:36:02.582Z,69.4
2018-07-04T03:36:43.695Z,69.1
2018-07-04T03:37:24.114Z,69.68
2018-07-04T03:38:04.622Z,69.98
2018-07-04T03:38:45.148Z,69.78
2018-07-04T03:39:26.411Z,69.24
2018-07-04T03:40:06.943Z,69.43
2018-07-04T03:40:47.445Z,69.24
2018-07-04T03:41:28.900Z,69.72
2018-07-04T03:42:09.443Z,69.62
2018-07-04T03:42:49.881Z,69.92
2018-07-04T03:43:30.395Z,69.82
2018-07-04T03:44:10.887Z,69.88
2018-07-04T03:44:51.336Z,70.17
2018-07-04T03:45:32.437Z,69.82
2018-07-04T03:46:12.939Z,70.01
2018-07-04T03:46:53.387Z,69.72
2018-07-04T03:47:33.896Z,69.72
2018-07-04T03:48:15.311Z,69.72
2018-07-04T03:48:55.860Z,69.82
2018-07-04T03:49:36.359Z,69.53
2018-07-04T03:50:16.839Z,69.24
2018-07-04T03:50:58.344Z,69.53
2018-07-04T03:51:38.962Z,68.66
2018-07-04T03:52:19.534Z,68.85
2018-07-04T03:53:00.045Z,68.66
2018-07-04T03:53:40.505Z,68.66
2018-07-04T03:54:20.989Z,69.14
2018-07-04T03:55:01.534Z,68.95
2018-07-04T03:55:43.339Z,68.85
2018-07-04T03:56:23.837Z,68.95
2018-07-04T03:57:05.048Z,68.95
2018-07-04T03:57:45.526Z,68.56
2018-07-04T03:58:26.021Z,68.46
2018-07-04T03:59:06.621Z,68.27
2018-07-04T03:59:47.173Z,68.49
2018-07-04T04:00:27.701Z,68.17
2018-07-04T04:01:08.187Z,68.46
2018-07-04T04:01:48.668Z,68.75
2018-07-04T04:02:29.807Z,68.75
2018-07-04T04:03:10.312Z,68.66
2018-07-04T04:03:50.795Z,68.56
2018-07-04T04:04:31.334Z,68.27
2018-07-04T04:05:11.828Z,68.4
2018-07-04T04:05:52.262Z,68.3
2018-07-04T04:06:32.794Z,68.4
2018-07-04T04:07:13.301Z,68.3
2018-07-04T04:07:53.759Z,68.4
2018-07-04T04:08:34.347Z,68.21
2018-07-04T04:09:16.447Z,68.59
2018-07-04T04:09:56.974Z,68.4
2018-07-04T04:10:38.130Z,68.11
2018-07-04T04:11:19.457Z,68.11
2018-07-04T04:12:02.010Z,67.91
2018-07-04T04:12:42.501Z,68.3
2018-07-04T04:13:22.989Z,67.91
2018-07-04T04:14:03.506Z,67.82
2018-07-04T04:14:44.543Z,67.43
2018-07-04T04:15:25.068Z,67.56
2018-07-04T04:16:05.522Z,67.08
2018-07-04T04:16:46.013Z,67.56
2018-07-04T04:17:26.525Z,67.27
2018-07-04T04:18:07.020Z,67.08
2018-07-04T04:18:47.470Z,67.08
2018-07-04T04:19:28.524Z,67.56
2018-07-04T04:20:10.541Z,67.76
2018-07-04T04:20:51.073Z,67.37
2018-07-04T04:21:31.586Z,67.08
2018-07-04T04:22:12.625Z,66.88
2018-07-04T04:22:53.139Z,67.18
2018-07-04T04:23:33.768Z,67.08
2018-07-04T04:24:15.105Z,66.69
2018-07-04T04:24:55.640Z,67.08
2018-07-04T04:25:36.071Z,67.27
2018-07-04T04:26:16.587Z,66.88
2018-07-04T04:26:57.112Z,67.18
2018-07-04T04:27:37.601Z,66.34
2018-07-04T04:28:18.078Z,66.82
2018-07-04T04:28:58.630Z,66.69
2018-07-04T04:29:39.115Z,66.69
2018-07-04T04:30:19.588Z,66.63
2018-07-04T04:31:00.128Z,66.53
2018-07-04T04:31:41.382Z,66.53
2018-07-04T04:32:21.854Z,66.72
2018-07-04T04:33:02.358Z,66.92
2018-07-04T04:33:42.807Z,66.82
2018-07-04T04:34:23.357Z,66.63
2018-07-04T04:35:03.856Z,66.92
2018-07-04T04:35:44.328Z,66.34
2018-07-04T04:36:24.815Z,66.72
2018-07-04T04:37:06.185Z,66.92
2018-07-04T04:37:46.723Z,66.72
2018-07-04T04:38:27.230Z,66.82
2018-07-04T04:39:07.696Z,66.43
2018-07-04T04:39:48.335Z,66.82
2018-07-04T04:40:28.851Z,66.53
2018-07-04T04:41:09.289Z,66.53
2018-07-04T04:41:49.781Z,67.02
2018-07-04T04:42:30.339Z,66.43
2018-07-04T04:43:11.620Z,66.53
2018-07-04T04:43:52.151Z,66.53
2018-07-04T04:44:34.462Z,67.02
2018-07-04T04:45:14.945Z,66.53
2018-07-04T04:45:55.443Z,67.11
2018-07-04T04:46:35.969Z,66.53
2018-07-04T04:47:16.426Z,67.3
2018-07-04T04:47:56.905Z,67.11
2018-07-04T04:48:37.442Z,67.21
2018-07-04T04:49:17.899Z,67.02
2018-07-04T04:49:58.401Z,67.02
2018-07-04T04:50:38.991Z,67.21
2018-07-04T04:51:19.458Z,66.82
2018-07-04T04:52:00.564Z,66.92
2018-07-04T04:52:41.094Z,67.21
2018-07-04T04:53:22.131Z,67.02
2018-07-04T04:54:02.671Z,66.82
2018-07-04T04:54:43.151Z,67.34
2018-07-04T04:55:23.607Z,66.92
2018-07-04T04:56:04.084Z,67.11
2018-07-04T04:56:44.639Z,67.5
2018-07-04T04:57:25.125Z,67.72
2018-07-04T04:58:05.663Z,67.5
2018-07-04T04:58:46.110Z,66.95
2018-07-04T04:59:26.639Z,67.34
2018-07-04T05:00:07.175Z,67.34
2018-07-04T05:00:47.651Z,67.34
2018-07-04T05:01:28.167Z,68.12
2018-07-04T05:02:08.665Z,68.02
2018-07-04T05:02:49.161Z,67.72
2018-07-04T05:03:29.678Z,68.12
2018-07-04T05:04:10.176Z,67.44
2018-07-04T05:04:51.390Z,67.24
2018-07-04T05:05:31.880Z,67.53
2018-07-04T05:06:12.413Z,67.24
2018-07-04T05:06:52.921Z,67.05
2018-07-04T05:07:33.431Z,67.27
2018-07-04T05:08:15.529Z,67.14
2018-07-04T05:08:55.870Z,67.05
2018-07-04T05:09:36.372Z,67.53
2018-07-04T05:10:16.880Z,66.85
2018-07-04T05:10:57.420Z,66.85
2018-07-04T05:11:37.907Z,67.37
2018-07-04T05:12:18.409Z,67.08
2018-07-04T05:12:58.901Z,67.27
2018-07-04T05:13:39.407Z,66.4
2018-07-04T05:14:19.948Z,66.79
2018-07-04T05:15:00.414Z,66.4
2018-07-04T05:15:40.983Z,66.99
2018-07-04T05:16:21.350Z,66.99
2018-07-04T05:17:01.935Z,66.05
2018-07-04T05:17:42.403Z,66.3
2018-07-04T05:18:22.872Z,65.92
2018-07-04T05:19:03.353Z,66.24
2018-07-04T05:19:44.027Z,65.66
2018-07-04T05:20:24.556Z,65.47
2018-07-04T05:21:05.052Z,65.56
2018-07-04T05:21:45.516Z,68.18
2018-07-04T05:22:26.008Z,75.36
2018-07-04T05:23:06.547Z,74.1
2018-07-04T05:23:47.019Z,70.7
2018-07-04T05:24:28.474Z,73.32
2018-07-04T05:25:09.483Z,72.25
2018-07-04T05:25:50.090Z,73.74
2018-07-04T05:27:48.516Z,73.65
2018-07-04T05:28:28.857Z,69.48
2018-07-04T05:29:09.371Z,69.15
2018-07-04T05:29:49.889Z,71.58
2018-07-04T05:30:30.448Z,71.67
2018-07-04T05:31:11.766Z,68.76
2018-07-04T05:31:52.266Z,72.55
2018-07-04T05:32:32.721Z,70.21
2018-07-04T05:33:13.225Z,68.28
2018-07-04T05:33:54.612Z,68.47
2018-07-04T05:34:35.040Z,70.21
2018-07-04T05:35:15.627Z,73.32
2018-07-04T05:35:56.104Z,70.41
2018-07-04T05:36:36.829Z,72.45
2018-07-04T05:37:17.129Z,71.96
2018-07-04T05:37:57.593Z,71.86
2018-07-04T05:38:38.093Z,72.64
2018-07-04T05:39:18.571Z,70.03
2018-07-04T05:39:59.092Z,72.64
2018-07-04T05:40:41.552Z,73.22
2018-07-04T05:41:22.045Z,72.61
2018-07-04T05:42:02.563Z,68.66
2018-07-04T05:42:43.145Z,71.25
2018-07-04T05:43:23.913Z,70.18
2018-07-04T05:44:04.537Z,71.25
2018-07-04T05:44:44.886Z,68.92
2018-07-04T05:45:26.231Z,69.12
2018-07-04T05:46:06.740Z,69.6
2018-07-04T05:46:47.296Z,69.12
2018-07-04T05:47:28.555Z,72.31
2018-07-04T05:48:09.075Z,74.26
2018-07-04T05:48:50.244Z,72.55
2018-07-04T05:49:30.776Z,71.58
2018-07-04T05:50:11.288Z,73.86
2018-07-04T05:50:52.522Z,75.23
2018-07-04T05:51:33.044Z,72.16
2018-07-04T05:52:13.508Z,73.77
2018-07-04T05:52:54.019Z,71.93
2018-07-04T05:53:34.550Z,70.47
2018-07-04T05:54:15.117Z,71.86
2018-07-04T05:54:55.562Z,74.68
2018-07-04T05:55:36.014Z,74.58
2018-07-04T05:56:16.545Z,73.8
2018-07-04T05:56:57.811Z,70.41
2018-07-04T05:57:38.328Z,70.31
2018-07-04T05:58:18.873Z,74.87
2018-07-04T05:58:59.362Z,72.06
2018-07-04T05:59:39.892Z,72.55
2018-07-04T06:00:21.180Z,72.55
2018-07-04T06:01:01.678Z,71.96
2018-07-04T06:01:42.152Z,71.77
2018-07-04T06:02:22.673Z,70.83
2018-07-04T06:03:03.144Z,71.61
2018-07-04T06:03:43.682Z,73.74
2018-07-04T06:04:24.122Z,71.06
2018-07-04T06:05:04.673Z,74.52
2018-07-04T06:05:45.124Z,78.83
2018-07-04T06:06:25.622Z,76.01
2018-07-04T06:07:06.121Z,79.32
2018-07-04T06:07:46.642Z,79.22
2018-07-04T06:08:27.142Z,76.01
2018-07-04T06:09:07.669Z,79.71
2018-07-04T06:09:48.185Z,74.85
2018-07-04T06:10:28.744Z,72.65
2018-07-04T06:11:09.225Z,78.77
2018-07-04T06:11:49.717Z,70.36
2018-07-04T06:12:30.861Z,69.29
2018-07-04T06:13:12.308Z,75.21
2018-07-04T06:13:52.779Z,69.71
2018-07-04T06:14:33.287Z,73.4
2018-07-04T06:15:14.364Z,69.55
2018-07-04T06:15:55.517Z,67.76
2018-07-04T06:16:36.055Z,72.47
2018-07-04T06:17:17.089Z,69.16
2018-07-04T06:17:57.600Z,70.52
2018-07-04T06:18:38.115Z,73.73
2018-07-04T06:19:18.647Z,71.78
2018-07-04T06:19:59.177Z,74.61
2018-07-04T06:20:39.705Z,77.91
2018-07-04T06:21:20.123Z,73.73
2018-07-04T06:22:00.665Z,74.02
2018-07-04T06:22:41.170Z,69.39
2018-07-04T06:23:21.729Z,67.54
2018-07-04T06:24:02.233Z,74.55
2018-07-04T06:24:43.644Z,73.38
2018-07-04T06:25:24.849Z,76.59
2018-07-04T06:26:05.348Z,79.9
2018-07-04T06:26:45.890Z,77.23
2018-07-04T06:27:26.400Z,74.71
2018-07-04T06:28:06.924Z,77.23
2018-07-04T06:28:47.510Z,73.83
2018-07-04T06:29:28.021Z,74.9
2018-07-04T06:30:08.529Z,72.17
2018-07-04T06:30:49.771Z,78.3
2018-07-04T06:31:30.252Z,72.66
2018-07-04T06:32:10.814Z,68.38
2018-07-04T06:32:51.291Z,67.44
2018-07-04T06:33:31.772Z,70.56
2018-07-04T06:34:13.107Z,72.31
2018-07-04T06:34:54.485Z,70.36
2018-07-04T06:35:34.987Z,69
2018-07-04T06:36:15.471Z,69.29
2018-07-04T06:36:56.740Z,70.75
2018-07-04T06:37:37.310Z,68.96
2018-07-04T06:38:17.813Z,73.96
2018-07-04T06:38:58.289Z,70.56
2018-07-04T06:39:38.811Z,66.17
2018-07-04T06:40:19.320Z,68.55
2018-07-04T06:40:59.833Z,72.15
2018-07-04T06:41:40.285Z,69.62
2018-07-04T06:42:20.862Z,70.01
2018-07-04T06:43:03.085Z,67.57
2018-07-04T06:43:43.585Z,65.46
2018-07-04T06:44:24.046Z,66.24
2018-07-04T06:45:04.589Z,67.5
2018-07-04T06:45:45.095Z,64
2018-07-04T06:46:25.665Z,64.29
2018-07-04T06:47:06.112Z,66.24
2018-07-04T06:47:46.582Z,66.56
2018-07-04T06:48:27.077Z,64.91
2018-07-04T06:49:08.553Z,67.22
2018-07-04T06:49:49.017Z,63.51
2018-07-04T06:50:30.183Z,62.08
2018-07-04T06:51:10.745Z,63.67
2018-07-04T06:51:51.254Z,66.66
2018-07-04T06:52:31.737Z,67.54
2018-07-04T06:53:12.235Z,67.77
2018-07-04T06:53:52.762Z,67.57
2018-07-04T06:54:33.345Z,68.84
2018-07-04T06:55:13.720Z,66.31
2018-07-04T06:55:54.289Z,66.11
2018-07-04T06:56:34.766Z,64.45
2018-07-04T06:57:15.264Z,71.28
2018-07-04T06:57:55.789Z,72.51
2018-07-04T06:58:36.777Z,73.49
2018-07-04T06:59:17.275Z,74.07
2018-07-04T06:59:57.800Z,70.66
2018-07-04T07:00:38.296Z,65.11
2018-07-04T07:01:18.813Z,67.74
2018-07-04T07:01:59.415Z,67.38
2018-07-04T07:02:39.799Z,67.15
2018-07-04T07:03:20.316Z,67.38
2018-07-04T07:04:00.815Z,67.77
2018-07-04T07:04:41.309Z,68.84
2018-07-04T07:05:22.527Z,69.33
2018-07-04T07:06:03.057Z,65.98
2018-07-04T07:06:43.586Z,66.76
2018-07-04T07:07:24.123Z,71.25
2018-07-04T07:08:04.686Z,66.08
2018-07-04T07:08:45.163Z,69.49
2018-07-04T07:09:25.648Z,65.53
2018-07-04T07:10:06.231Z,67.38
2018-07-04T07:10:46.709Z,63.87
2018-07-04T07:11:27.264Z,65.43
2018-07-04T07:12:07.680Z,63.96
2018-07-04T07:12:48.212Z,63.77
2018-07-04T07:13:28.663Z,66.63
2018-07-04T07:14:09.176Z,70.01
2018-07-04T07:14:49.681Z,70.07
2018-07-04T07:15:30.164Z,70.56
2018-07-04T07:16:10.711Z,71.64
2018-07-04T07:16:51.235Z,71.99
2018-07-04T07:17:31.698Z,69
2018-07-04T07:18:12.264Z,69.39
2018-07-04T07:18:52.778Z,69
2018-07-04T07:19:33.987Z,68.9
2018-07-04T07:20:14.506Z,71.15
2018-07-04T07:20:55.643Z,69.78
2018-07-04T07:21:36.772Z,68.65
2018-07-04T07:22:17.209Z,70.4
2018-07-04T07:22:59.256Z,63.67
2018-07-04T07:23:39.742Z,70.11
2018-07-04T07:24:20.198Z,69.26
2018-07-04T07:25:00.695Z,67.18
2018-07-04T07:25:41.728Z,67.61
2018-07-04T07:26:22.283Z,63.51
2018-07-04T07:27:02.779Z,66.53
2018-07-04T07:27:43.240Z,65.2
2018-07-04T07:28:24.325Z,64.12
2018-07-04T07:29:05.434Z,62.85
2018-07-04T07:29:45.919Z,62.56
2018-07-04T07:30:26.423Z,62.66
2018-07-04T07:31:06.940Z,64.94
2018-07-04T07:31:47.459Z,65.39
2018-07-04T07:32:27.969Z,66.27
2018-07-04T07:33:09.209Z,69.46
2018-07-04T07:33:49.713Z,70.63
2018-07-04T07:34:30.895Z,70.53
2018-07-04T07:35:11.412Z,68.59
2018-07-04T07:35:51.988Z,66.83
2018-07-04T07:36:33.018Z,65.88
2018-07-04T07:37:13.557Z,71.22
2018-07-04T07:37:54.235Z,68.97
2018-07-04T07:38:34.707Z,69.49
2018-07-04T07:39:15.424Z,72.62
2018-07-04T07:39:56.725Z,72.42
2018-07-04T07:40:38.057Z,72.97
2018-07-04T07:41:18.493Z,73.46
2018-07-04T07:41:59.077Z,74.44
2018-07-04T07:42:39.552Z,74.15
2018-07-04T07:43:20.075Z,72.68
2018-07-04T07:44:00.511Z,67.64
2018-07-04T07:44:41.025Z,72.23
2018-07-04T07:45:22.382Z,66.27
2018-07-04T07:46:02.841Z,64.81
2018-07-04T07:46:45.257Z,70.14
2018-07-04T07:47:25.934Z,73.56
2018-07-04T07:48:06.538Z,72.78
2018-07-04T07:48:47.076Z,72.39
2018-07-04T07:49:27.633Z,72.58
2018-07-04T07:50:08.131Z,70.5
2018-07-04T07:50:49.420Z,67.57
2018-07-04T07:51:30.807Z,69.36
2018-07-04T07:52:12.612Z,70.83
2018-07-04T07:52:53.606Z,70.89
2018-07-04T07:53:34.104Z,70.73
2018-07-04T07:54:14.748Z,69.82
2018-07-04T07:54:55.737Z,69.88
2018-07-04T07:55:38.028Z,68.74
2018-07-04T07:56:18.544Z,66.31
2018-07-04T07:56:59.069Z,68.84
2018-07-04T07:57:39.527Z,68.84
2018-07-04T07:58:20.050Z,69.33
2018-07-04T07:59:00.545Z,69.33
2018-07-04T07:59:41.043Z,68.52
2018-07-04T08:00:21.782Z,66.89
2018-07-04T08:01:02.280Z,67.28
2018-07-04T08:01:42.877Z,69.49
2018-07-04T08:02:23.328Z,71.54
2018-07-04T08:03:03.847Z,69.59
2018-07-04T08:03:44.375Z,67.67
2018-07-04T08:04:24.888Z,71.34
2018-07-04T08:05:06.128Z,73.49
2018-07-04T08:05:46.687Z,72.61
2018-07-04T08:06:27.165Z,70.47
2018-07-04T08:07:07.628Z,69.29
2018-07-04T08:07:48.193Z,66.08
2018-07-04T08:08:28.687Z,69.23
2018-07-04T08:09:09.156Z,70.7
2018-07-04T08:09:49.664Z,75.04
2018-07-04T08:10:30.175Z,74.85
2018-07-04T08:11:10.668Z,73.29
2018-07-04T08:11:51.770Z,74.17
2018-07-04T08:12:33.027Z,74.46
2018-07-04T08:13:13.526Z,74.95
2018-07-04T08:13:54.037Z,76.31
2018-07-04T08:14:34.568Z,75.53
2018-07-04T08:15:15.916Z,70.37
2018-07-04T08:15:56.421Z,75.08
2018-07-04T08:16:36.938Z,74.01
2018-07-04T08:17:17.411Z,67.28
2018-07-04T08:17:57.978Z,71.96
2018-07-04T08:18:38.555Z,69.23
2018-07-04T08:19:20.047Z,68.77
2018-07-04T08:20:00.534Z,69.13
2018-07-04T08:20:41.054Z,66.05
2018-07-04T08:21:21.705Z,66.5
2018-07-04T08:22:02.749Z,72.64
2018-07-04T08:22:44.630Z,74.4
2018-07-04T08:23:25.161Z,75.08
2018-07-04T08:24:07.177Z,74.89
2018-07-04T08:24:47.634Z,74.98
2018-07-04T08:25:28.251Z,74.21
2018-07-04T08:26:08.765Z,73.52
2018-07-04T08:26:49.316Z,74.01
2018-07-04T08:27:29.806Z,74.01
2018-07-04T08:28:10.348Z,75.27
2018-07-04T08:28:50.822Z,76.15
2018-07-04T08:29:31.345Z,73.82
2018-07-04T08:30:11.898Z,71.02
2018-07-04T08:30:52.445Z,70.53
2018-07-04T08:31:32.975Z,72.58
2018-07-04T08:32:13.426Z,74.63
2018-07-04T08:32:53.934Z,69.17
2018-07-04T08:33:34.480Z,71.61
2018-07-04T08:34:14.930Z,74.34
2018-07-04T08:34:55.446Z,74.34
2018-07-04T08:35:36.004Z,74.73
2018-07-04T08:36:16.452Z,74.34
2018-07-04T08:36:58.652Z,74.63
2018-07-04T08:37:40.062Z,72.88
2018-07-04T08:38:20.567Z,69.07
2018-07-04T08:39:01.213Z,73.56
2018-07-04T08:39:41.763Z,74.83
2018-07-04T08:40:22.918Z,71.41
2018-07-04T08:41:03.395Z,74.73
2018-07-04T08:41:43.913Z,71.7
2018-07-04T08:42:24.407Z,77.17
2018-07-04T08:43:05.767Z,80.33
2018-07-04T08:43:46.262Z,76.62
2018-07-04T08:44:27.346Z,77.69
2018-07-04T08:45:07.840Z,78.47
2018-07-04T08:45:48.378Z,67.44
2018-07-04T08:46:28.936Z,70.61
2018-07-04T08:47:09.447Z,69.24